Time;durP1;ratioP1;P1;durP2;ratioP2;P2;SDS_P1;SDS_P2;PMS_P1;PMS_P2;Temp;Humidity;BMP_temperature;BMP_pressure;BME280_temperature;BME280_humidity;BME280_pressure;Samples;Min_cycle;Max_cycle;Signal;HPM_P1;HPM_P2
2021/10/04 00:00:40;;;;;;;;;;;;;;;;;;2114419;27;1241;-75
2021/10/04 00:01:41;;;;;;;;;;;;;;;;;;2113402;27;1037;-75
2021/10/04 00:02:42;;;;;;;;;;;;;;;;;;2114330;27;1072;-76
2021/10/04 00:03:42;;;;;;;;;;;;;;;;;;2112226;27;4684;-76
2021/10/04 00:04:43;;;;;;;;;;;;;;;;;;2112770;27;4040;-75
2021/10/04 00:05:43;;;;;;;;;;;;;;;;;;2113670;27;5031;-76
2021/10/04 00:06:44;;;;;;;;;;;;;;;;;;2112358;27;4697;-76
2021/10/04 00:07:44;;;;;;;;;;;;;;;;;;2113452;27;956;-75
2021/10/04 00:08:45;;;;;;;;;;;;;;;;;;2111922;27;4599;-76
2021/10/04 00:09:46;;;;;;;;;;;;;;;;;;2114169;27;1897;-75
2021/10/04 00:10:47;;;;;;;;;;;;;;;;;;2113568;27;1685;-76
2021/10/04 00:11:47;;;;;;;;;;;;;;;;;;2112084;27;4235;-75
2021/10/04 00:12:48;;;;;;;;;;;;;;;;;;2115114;27;1184;-76
2021/10/04 00:13:48;;;;;;;;;;;;;;;;;;2110847;27;4834;-75
2021/10/04 00:14:49;;;;;;;;;;;;;;;;;;2108864;27;4495;-75
2021/10/04 00:15:49;;;;;;;;;;;;;;;;;;2103593;27;4036;-76
2021/10/04 00:16:50;;;;;;;;;;;;;;;;;;2107283;27;4395;-75
2021/10/04 00:17:51;;;;;;;;;;;;;;;;;;2113300;27;4436;-76
2021/10/04 00:18:52;;;;;;;;;;;;;;;;;;2111073;27;5102;-76
2021/10/04 00:19:53;;;;;;;;;;;;;;;;;;2113167;27;4586;-76
2021/10/04 00:20:53;;;;;;;;;;;;;;;;;;2114348;27;1887;-76
2021/10/04 00:21:54;;;;;;;;;;;;;;;;;;2114348;27;1141;-76
2021/10/04 00:22:54;;;;;;;;;;;;;;;;;;2115076;27;1591;-76
2021/10/04 00:23:55;;;;;;;;;;;;;;;;;;2111821;27;4767;-76
2021/10/04 00:24:55;;;;;;;;;;;;;;;;;;2112632;27;4733;-75
2021/10/04 00:25:57;;;;;;;;;;;;;;;;;;2111844;27;5075;-75
2021/10/04 00:26:57;;;;;;;;;;;;;;;;;;2114014;27;4995;-75
2021/10/04 00:27:58;;;;;;;;;;;;;;;;;;2112530;27;4879;-76
2021/10/04 00:28:58;;;;;;;;;;;;;;;;;;2111402;27;4642;-76
2021/10/04 00:30:05;;;;;;;;;;;;;;;;;;2113710;27;1411;-76
2021/10/04 00:31:05;;;;;;;;;;;;;;;;;;2112420;27;3079;-76
2021/10/04 00:32:06;;;;;;;;;;;;;;;;;;2111371;27;4338;-75
2021/10/04 00:33:06;;;;;;;;;;;;;;;;;;2111048;27;3354;-76
2021/10/04 00:34:08;;;;;;;;;;;;;;;;;;2112210;27;1142;-75
2021/10/04 00:35:08;;;;;;;;;;;;;;;;;;2111574;27;5065;-75
2021/10/04 00:36:09;;;;;;;;;;;;;;;;;;2113015;27;2085;-76
2021/10/04 00:37:09;;;;;;;;;;;;;;;;;;2112099;27;4513;-75
2021/10/04 00:38:10;;;;;;;;;;;;;;;;;;2114108;27;4588;-76
2021/10/04 00:39:10;;;;;;;;;;;;;;;;;;2112857;27;4779;-76
2021/10/04 00:40:11;;;;;;;;;;;;;;;;;;2113273;27;3371;-75
2021/10/04 00:41:12;;;;;;;;;;;;;;;;;;2111013;27;4723;-76
2021/10/04 00:42:13;;;;;;;;;;;;;;;;;;2113234;27;2469;-76
2021/10/04 00:43:13;;;;;;;;;;;;;;;;;;2113463;27;2737;-76
2021/10/04 00:44:14;;;;;;;;;;;;;;;;;;2113796;27;1106;-76
2021/10/04 00:45:14;;;;;;;;;;;;;;;;;;2110824;27;3223;-76
2021/10/04 00:46:15;;;;;;;;;;;;;;;;;;2113942;27;1185;-76
2021/10/04 00:47:15;;;;;;;;;;;;;;;;;;2112084;27;4343;-75
2021/10/04 00:48:16;;;;;;;;;;;;;;;;;;2113685;27;4534;-76
2021/10/04 00:49:16;;;;;;;;;;;;;;;;;;2112854;27;4868;-76
2021/10/04 00:50:18;;;;;;;;;;;;;;;;;;2114051;27;1395;-75
2021/10/04 00:51:20;;;;;;;;;;;;;;;;;;2113110;27;4616;-75
2021/10/04 00:52:21;;;;;;;;;;;;;;;;;;2111848;27;5354;-76
2021/10/04 00:53:22;;;;;;;;;;;;;;;;;;2113872;27;1038;-75
2021/10/04 00:54:22;;;;;;;;;;;;;;;;;;2113573;27;4907;-75
2021/10/04 00:55:23;;;;;;;;;;;;;;;;;;2112209;27;4357;-76
2021/10/04 00:56:23;;;;;;;;;;;;;;;;;;2113550;27;4895;-75
2021/10/04 00:57:24;;;;;;;;;;;;;;;;;;2113322;27;4671;-75
2021/10/04 00:58:24;;;;;;;;;;;;;;;;;;2112779;27;3008;-75
2021/10/04 00:59:25;;;;;;;;;;;;;;;;;;2112695;27;4893;-75
2021/10/04 01:00:26;;;;;;;;;;;;;;;;;;2111600;27;5449;-76
2021/10/04 01:01:28;;;;;;;;;;;;;;;;;;2113831;27;1164;-75
2021/10/04 01:02:28;;;;;;;;;;;;;;;;;;2113638;27;4975;-76
2021/10/04 01:03:29;;;;;;;;;;;;;;;;;;2113593;27;1217;-76
2021/10/04 01:04:30;;;;;;;;;;;;;;;;;;2112711;27;1410;-76
2021/10/04 01:05:31;;;;;;;;;;;;;;;;;;2110608;27;1670;-76
2021/10/04 01:06:31;;;;;;;;;;;;;;;;;;2113463;27;5154;-76
2021/10/04 01:07:32;;;;;;;;;;;;;;;;;;2111246;27;5164;-76
2021/10/04 01:08:32;;;;;;;;;;;;;;;;;;2110670;27;5209;-75
2021/10/04 01:09:33;;;;;;;;;;;;;;;;;;2111191;27;2085;-76
2021/10/04 01:10:33;;;;;;;;;;;;;;;;;;2112456;27;1328;-76
2021/10/04 01:11:34;;;;;;;;;;;;;;;;;;2113029;27;1456;-76
2021/10/04 01:12:34;;;;;;;;;;;;;;;;;;2113735;27;1318;-75
2021/10/04 01:13:35;;;;;;;;;;;;;;;;;;2113377;27;1371;-76
2021/10/04 01:14:36;;;;;;;;;;;;;;;;;;2112794;27;1235;-76
2021/10/04 01:15:37;;;;;;;;;;;;;;;;;;2111795;27;5296;-76
2021/10/04 01:16:37;;;;;;;;;;;;;;;;;;2113051;27;5294;-76
2021/10/04 01:17:38;;;;;;;;;;;;;;;;;;2112566;27;4679;-76
2021/10/04 01:18:39;;;;;;;;;;;;;;;;;;2113029;27;4184;-76
2021/10/04 01:19:39;;;;;;;;;;;;;;;;;;2112685;27;1712;-76
2021/10/04 01:20:41;;;;;;;;;;;;;;;;;;2113330;27;1189;-76
2021/10/04 01:21:42;;;;;;;;;;;;;;;;;;2113447;27;1528;-75
2021/10/04 01:22:43;;;;;;;;;;;;;;;;;;2113870;27;1125;-76
2021/10/04 01:23:44;;;;;;;;;;;;;;;;;;2112088;27;5408;-76
2021/10/04 01:24:44;;;;;;;;;;;;;;;;;;2112110;27;4995;-76
2021/10/04 01:25:45;;;;;;;;;;;;;;;;;;2111936;27;4843;-76
2021/10/04 01:26:45;;;;;;;;;;;;;;;;;;2112442;27;1142;-76
2021/10/04 01:27:47;;;;;;;;;;;;;;;;;;2112746;27;4780;-76
2021/10/04 01:28:47;;;;;;;;;;;;;;;;;;2112976;27;2522;-76
2021/10/04 01:29:48;;;;;;;;;;;;;;;;;;2113328;27;1917;-76
2021/10/04 01:30:48;;;;;;;;;;;;;;;;;;2112992;27;1292;-76
2021/10/04 01:31:49;;;;;;;;;;;;;;;;;;2112113;27;5500;-76
2021/10/04 01:32:49;;;;;;;;;;;;;;;;;;2111488;27;4932;-76
2021/10/04 01:33:50;;;;;;;;;;;;;;;;;;2113016;27;1132;-76
2021/10/04 01:34:50;;;;;;;;;;;;;;;;;;2112431;27;1208;-76
2021/10/04 01:35:51;;;;;;;;;;;;;;;;;;2112499;27;1129;-76
2021/10/04 01:36:52;;;;;;;;;;;;;;;;;;2113241;27;3371;-76
2021/10/04 01:37:53;;;;;;;;;;;;;;;;;;2112879;27;1196;-75
2021/10/04 01:38:53;;;;;;;;;;;;;;;;;;2111651;27;4528;-76
2021/10/04 01:39:54;;;;;;;;;;;;;;;;;;2111798;27;5446;-76
2021/10/04 01:40:54;;;;;;;;;;;;;;;;;;2112444;27;4947;-76
2021/10/04 01:41:55;;;;;;;;;;;;;;;;;;2112251;27;5089;-76
2021/10/04 01:42:56;;;;;;;;;;;;;;;;;;2113156;27;1116;-76
2021/10/04 01:43:57;;;;;;;;;;;;;;;;;;2113293;27;1116;-75
2021/10/04 01:44:58;;;;;;;;;;;;;;;;;;2113192;27;1391;-76
2021/10/04 01:45:58;;;;;;;;;;;;;;;;;;2113134;27;4962;-76
2021/10/04 01:46:59;;;;;;;;;;;;;;;;;;2113048;27;1039;-76
2021/10/04 01:47:59;;;;;;;;;;;;;;;;;;2111015;27;5383;-76
2021/10/04 01:49:00;;;;;;;;;;;;;;;;;;2110472;27;5074;-76
2021/10/04 01:50:00;;;;;;;;;;;;;;;;;;2111467;27;4405;-76
2021/10/04 01:51:02;;;;;;;;;;;;;;;;;;2111710;27;4749;-76
2021/10/04 01:52:02;;;;;;;;;;;;;;;;;;2113253;27;1135;-76
2021/10/04 01:53:03;;;;;;;;;;;;;;;;;;2113927;27;5269;-76
2021/10/04 01:54:03;;;;;;;;;;;;;;;;;;2112885;27;1377;-76
2021/10/04 01:55:04;;;;;;;;;;;;;;;;;;2113029;27;1211;-76
2021/10/04 01:56:04;;;;;;;;;;;;;;;;;;2113133;27;1235;-76
2021/10/04 01:57:05;;;;;;;;;;;;;;;;;;2112742;27;4699;-76
2021/10/04 01:58:06;;;;;;;;;;;;;;;;;;2111371;27;5126;-76
2021/10/04 01:59:06;;;;;;;;;;;;;;;;;;2111041;27;4494;-76
2021/10/04 02:00:08;;;;;;;;;;;;;;;;;;2113023;27;1354;-75
2021/10/04 02:01:08;;;;;;;;;;;;;;;;;;2111353;27;3717;-76
2021/10/04 02:02:09;;;;;;;;;;;;;;;;;;2111444;27;4691;-76
2021/10/04 02:03:09;;;;;;;;;;;;;;;;;;2113344;27;1521;-76
2021/10/04 02:04:10;;;;;;;;;;;;;;;;;;2113578;27;4916;-76
2021/10/04 02:05:10;;;;;;;;;;;;;;;;;;2112332;27;1432;-76
2021/10/04 02:06:11;;;;;;;;;;;;;;;;;;2113636;27;1307;-76
2021/10/04 02:07:11;;;;;;;;;;;;;;;;;;2111717;27;4713;-76
2021/10/04 02:08:12;;;;;;;;;;;;;;;;;;2111666;27;5316;-76
2021/10/04 02:09:13;;;;;;;;;;;;;;;;;;2112166;27;2391;-75
2021/10/04 02:10:14;;;;;;;;;;;;;;;;;;2112939;27;2300;-76
2021/10/04 02:11:14;;;;;;;;;;;;;;;;;;2113187;27;1240;-76
2021/10/04 02:12:15;;;;;;;;;;;;;;;;;;2113982;27;2056;-76
2021/10/04 02:13:16;;;;;;;;;;;;;;;;;;2113470;27;1187;-76
2021/10/04 02:14:17;;;;;;;;;;;;;;;;;;2113058;27;1813;-76
2021/10/04 02:15:17;;;;;;;;;;;;;;;;;;2112997;27;1141;-75
2021/10/04 02:16:18;;;;;;;;;;;;;;;;;;2111625;27;5448;-76
2021/10/04 02:17:18;;;;;;;;;;;;;;;;;;2111861;27;4921;-76
2021/10/04 02:18:19;;;;;;;;;;;;;;;;;;2112420;27;4816;-76
2021/10/04 02:19:19;;;;;;;;;;;;;;;;;;2112487;27;2500;-76
2021/10/04 02:20:20;;;;;;;;;;;;;;;;;;2112659;27;1290;-76
2021/10/04 02:21:21;;;;;;;;;;;;;;;;;;2112683;27;1441;-76
2021/10/04 02:22:22;;;;;;;;;;;;;;;;;;2111517;27;5111;-76
2021/10/04 02:23:22;;;;;;;;;;;;;;;;;;2113380;27;1146;-76
2021/10/04 02:24:23;;;;;;;;;;;;;;;;;;2111125;27;5363;-76
2021/10/04 02:25:23;;;;;;;;;;;;;;;;;;2111711;27;4953;-76
2021/10/04 02:26:24;;;;;;;;;;;;;;;;;;2112655;27;1080;-76
2021/10/04 02:27:24;;;;;;;;;;;;;;;;;;2112354;27;1161;-75
2021/10/04 02:28:26;;;;;;;;;;;;;;;;;;2112668;27;4812;-76
2021/10/04 02:29:26;;;;;;;;;;;;;;;;;;2112254;27;1317;-76
2021/10/04 02:30:27;;;;;;;;;;;;;;;;;;2111025;27;2578;-76
2021/10/04 02:31:27;;;;;;;;;;;;;;;;;;2113296;27;1536;-75
2021/10/04 02:32:28;;;;;;;;;;;;;;;;;;2110511;27;5416;-76
2021/10/04 02:33:28;;;;;;;;;;;;;;;;;;2111688;27;5011;-76
2021/10/04 02:34:29;;;;;;;;;;;;;;;;;;2112594;27;5212;-76
2021/10/04 02:35:29;;;;;;;;;;;;;;;;;;2110833;27;4456;-76
2021/10/04 02:36:30;;;;;;;;;;;;;;;;;;2112781;27;3508;-75
2021/10/04 02:37:30;;;;;;;;;;;;;;;;;;2109194;27;4500;-76
2021/10/04 02:38:32;;;;;;;;;;;;;;;;;;2108419;27;4793;-76
2021/10/04 02:39:32;;;;;;;;;;;;;;;;;;2110973;27;4874;-76
2021/10/04 02:40:33;;;;;;;;;;;;;;;;;;2111202;27;4391;-75
2021/10/04 02:41:33;;;;;;;;;;;;;;;;;;2110873;27;4709;-76
2021/10/04 02:42:34;;;;;;;;;;;;;;;;;;2110193;27;4706;-76
2021/10/04 02:43:34;;;;;;;;;;;;;;;;;;2109018;27;4517;-76
2021/10/04 02:44:35;;;;;;;;;;;;;;;;;;2112635;27;1115;-76
2021/10/04 02:45:35;;;;;;;;;;;;;;;;;;2109911;27;4534;-76
2021/10/04 02:46:37;;;;;;;;;;;;;;;;;;2112511;27;4420;-76
2021/10/04 02:47:37;;;;;;;;;;;;;;;;;;2110795;27;4463;-76
2021/10/04 02:48:38;;;;;;;;;;;;;;;;;;2107246;27;5129;-76
2021/10/04 02:49:38;;;;;;;;;;;;;;;;;;2109180;27;4484;-76
2021/10/04 02:50:39;;;;;;;;;;;;;;;;;;2111033;27;4661;-76
2021/10/04 02:51:39;;;;;;;;;;;;;;;;;;2111645;27;4398;-76
2021/10/04 02:52:40;;;;;;;;;;;;;;;;;;2111830;27;4423;-76
2021/10/04 02:53:40;;;;;;;;;;;;;;;;;;2108782;27;4949;-76
2021/10/04 02:54:41;;;;;;;;;;;;;;;;;;2112451;27;4418;-76
2021/10/04 02:55:42;;;;;;;;;;;;;;;;;;2110720;27;4562;-76
2021/10/04 02:56:43;;;;;;;;;;;;;;;;;;2110187;27;4593;-76
2021/10/04 02:57:43;;;;;;;;;;;;;;;;;;2112289;27;4327;-76
2021/10/04 02:58:44;;;;;;;;;;;;;;;;;;2110786;27;4956;-75
2021/10/04 02:59:44;;;;;;;;;;;;;;;;;;2106197;27;4411;-76
2021/10/04 03:00:45;;;;;;;;;;;;;;;;;;2108841;27;4495;-75
2021/10/04 03:01:45;;;;;;;;;;;;;;;;;;2108485;27;4734;-76
2021/10/04 03:02:46;;;;;;;;;;;;;;;;;;2110828;27;4622;-76
2021/10/04 03:03:47;;;;;;;;;;;;;;;;;;2108730;27;4977;-75
2021/10/04 03:04:47;;;;;;;;;;;;;;;;;;2111500;27;2302;-76
2021/10/04 03:05:49;;;;;;;;;;;;;;;;;;2110155;27;4901;-76
2021/10/04 03:06:49;;;;;;;;;;;;;;;;;;2111977;27;4221;-76
2021/10/04 03:07:50;;;;;;;;;;;;;;;;;;2110146;27;4817;-75
2021/10/04 03:08:51;;;;;;;;;;;;;;;;;;2109343;27;4626;-76
2021/10/04 03:09:51;;;;;;;;;;;;;;;;;;2111158;27;4573;-76
2021/10/04 03:10:53;;;;;;;;;;;;;;;;;;2109697;27;5240;-76
2021/10/04 03:11:53;;;;;;;;;;;;;;;;;;2111548;27;5197;-76
2021/10/04 03:12:54;;;;;;;;;;;;;;;;;;2110498;27;4878;-76
2021/10/04 03:13:54;;;;;;;;;;;;;;;;;;2107270;27;5730;-76
2021/10/04 03:14:55;;;;;;;;;;;;;;;;;;2108526;27;5353;-76
2021/10/04 03:15:55;;;;;;;;;;;;;;;;;;2109071;27;4784;-76
2021/10/04 03:16:56;;;;;;;;;;;;;;;;;;2111421;27;4594;-76
2021/10/04 03:17:56;;;;;;;;;;;;;;;;;;2108014;27;4664;-75
2021/10/04 03:18:58;;;;;;;;;;;;;;;;;;2109473;27;5312;-76
2021/10/04 03:19:58;;;;;;;;;;;;;;;;;;2112264;27;1341;-76
2021/10/04 03:20:59;;;;;;;;;;;;;;;;;;2112298;27;1300;-75
2021/10/04 03:21:59;;;;;;;;;;;;;;;;;;2112394;27;1165;-76
2021/10/04 03:23:00;;;;;;;;;;;;;;;;;;2112144;27;1145;-76
2021/10/04 03:24:00;;;;;;;;;;;;;;;;;;2112310;27;1283;-76
2021/10/04 03:25:01;;;;;;;;;;;;;;;;;;2112957;27;1398;-76
2021/10/04 03:26:01;;;;;;;;;;;;;;;;;;2111904;27;1189;-76
2021/10/04 03:27:02;;;;;;;;;;;;;;;;;;2110915;27;991;-76
2021/10/04 03:28:04;;;;;;;;;;;;;;;;;;2111571;27;1151;-76
2021/10/04 03:29:04;;;;;;;;;;;;;;;;;;2110557;27;3351;-75
2021/10/04 03:30:05;;;;;;;;;;;;;;;;;;2111400;27;1954;-76
2021/10/04 03:31:05;;;;;;;;;;;;;;;;;;2111199;27;1342;-76
2021/10/04 03:32:06;;;;;;;;;;;;;;;;;;2111420;27;1133;-76
2021/10/04 03:33:07;;;;;;;;;;;;;;;;;;2110802;27;1253;-75
2021/10/04 03:34:07;;;;;;;;;;;;;;;;;;2110494;27;1114;-76
2021/10/04 03:35:08;;;;;;;;;;;;;;;;;;2109896;27;1876;-76
2021/10/04 03:36:09;;;;;;;;;;;;;;;;;;2110663;27;1125;-75
2021/10/04 03:37:10;;;;;;;;;;;;;;;;;;2112762;27;1027;-76
2021/10/04 03:38:11;;;;;;;;;;;;;;;;;;2112315;27;1349;-76
2021/10/04 03:39:11;;;;;;;;;;;;;;;;;;2111385;27;1101;-75
2021/10/04 03:40:12;;;;;;;;;;;;;;;;;;2111602;28;1330;-76
2021/10/04 03:42:40;;;;;;;;;;;;;;;;;;2120828;27;2257;-76
2021/10/04 03:43:40;;;;;;;;;;;;;;;;;;2114092;27;1123;-76
2021/10/04 03:44:41;;;;;;;;;;;;;;;;;;2114267;27;1137;-75
2021/10/04 03:45:41;;;;;;;;;;;;;;;;;;2114606;27;1336;-76
2021/10/04 03:46:43;;;;;;;;;;;;;;;;;;2115051;27;1110;-76
2021/10/04 03:47:43;;;;;;;;;;;;;;;;;;2114051;27;1191;-76
2021/10/04 03:48:44;;;;;;;;;;;;;;;;;;2114952;27;1276;-76
2021/10/04 03:49:44;;;;;;;;;;;;;;;;;;2114475;27;1366;-76
2021/10/04 03:50:45;;;;;;;;;;;;;;;;;;2113622;27;1899;-75
2021/10/04 03:51:45;;;;;;;;;;;;;;;;;;2111382;27;1710;-75
2021/10/04 03:52:46;;;;;;;;;;;;;;;;;;2113993;27;1090;-76
2021/10/04 03:53:49;;;;;;;;;;;;;;;;;;2112999;27;1229;-78
2021/10/04 03:54:50;;;;;;;;;;;;;;;;;;2114368;27;1224;-76
2021/10/04 03:55:50;;;;;;;;;;;;;;;;;;2113042;27;1804;-75
2021/10/04 03:56:51;;;;;;;;;;;;;;;;;;2114198;27;1907;-76
2021/10/04 03:57:52;;;;;;;;;;;;;;;;;;2114702;27;1165;-76
2021/10/04 03:58:53;;;;;;;;;;;;;;;;;;2113674;27;1095;-76
2021/10/04 03:59:53;;;;;;;;;;;;;;;;;;2114493;27;1219;-76
2021/10/04 04:00:54;;;;;;;;;;;;;;;;;;2114721;27;1030;-76
2021/10/04 04:01:54;;;;;;;;;;;;;;;;;;2114177;27;1901;-76
2021/10/04 04:02:55;;;;;;;;;;;;;;;;;;2114791;27;1199;-75
2021/10/04 04:03:55;;;;;;;;;;;;;;;;;;2114488;27;1017;-76
2021/10/04 04:04:56;;;;;;;;;;;;;;;;;;2114043;27;1364;-75
2021/10/04 04:05:56;;;;;;;;;;;;;;;;;;2113674;27;1157;-76
2021/10/04 04:06:58;;;;;;;;;;;;;;;;;;2115577;27;1053;-76
2021/10/04 04:07:58;;;;;;;;;;;;;;;;;;2115647;27;1021;-76
2021/10/04 04:08:59;;;;;;;;;;;;;;;;;;2116673;27;3162;-76
2021/10/04 04:09:59;;;;;;;;;;;;;;;;;;2116611;27;1313;-76
2021/10/04 04:11:00;;;;;;;;;;;;;;;;;;2116729;27;1434;-75
2021/10/04 04:12:00;;;;;;;;;;;;;;;;;;2114060;27;1249;-76
2021/10/04 04:13:01;;;;;;;;;;;;;;;;;;2115058;27;1208;-76
2021/10/04 04:14:01;;;;;;;;;;;;;;;;;;2114387;27;1181;-75
2021/10/04 04:15:02;;;;;;;;;;;;;;;;;;2115075;27;1481;-76
2021/10/04 04:16:04;;;;;;;;;;;;;;;;;;2114659;27;1390;-75
2021/10/04 04:17:05;;;;;;;;;;;;;;;;;;2114223;27;1040;-75
2021/10/04 04:18:06;;;;;;;;;;;;;;;;;;2115227;27;1233;-76
2021/10/04 04:19:07;;;;;;;;;;;;;;;;;;2114757;27;1043;-75
2021/10/04 04:20:07;;;;;;;;;;;;;;;;;;2114563;27;1332;-76
2021/10/04 04:21:09;;;;;;;;;;;;;;;;;;2114864;27;1221;-76
2021/10/04 04:22:09;;;;;;;;;;;;;;;;;;2114799;27;1906;-76
2021/10/04 04:23:10;;;;;;;;;;;;;;;;;;2114675;27;1188;-76
2021/10/04 04:24:10;;;;;;;;;;;;;;;;;;2114055;27;1047;-76
2021/10/04 04:25:12;;;;;;;;;;;;;;;;;;2114170;27;3375;-75
2021/10/04 04:26:12;;;;;;;;;;;;;;;;;;2114797;27;1087;-75
2021/10/04 04:27:13;;;;;;;;;;;;;;;;;;2114135;27;1078;-76
2021/10/04 04:28:13;;;;;;;;;;;;;;;;;;2112921;27;1264;-75
2021/10/04 04:29:14;;;;;;;;;;;;;;;;;;2110693;27;1323;-75
2021/10/04 04:30:14;;;;;;;;;;;;;;;;;;2111313;27;1391;-75
2021/10/04 04:31:15;;;;;;;;;;;;;;;;;;2112561;27;1387;-76
2021/10/04 04:32:16;;;;;;;;;;;;;;;;;;2112671;27;1145;-76
2021/10/04 04:33:17;;;;;;;;;;;;;;;;;;2112671;27;1177;-76
2021/10/04 04:34:17;;;;;;;;;;;;;;;;;;2112380;27;1375;-75
2021/10/04 04:35:18;;;;;;;;;;;;;;;;;;2112424;27;1388;-76
2021/10/04 04:36:19;;;;;;;;;;;;;;;;;;2112946;27;1092;-75
2021/10/04 04:37:19;;;;;;;;;;;;;;;;;;2112632;27;1068;-75
2021/10/04 04:38:20;;;;;;;;;;;;;;;;;;2112600;27;1129;-75
2021/10/04 04:39:21;;;;;;;;;;;;;;;;;;2112354;27;1158;-76
2021/10/04 04:40:22;;;;;;;;;;;;;;;;;;2111115;27;1310;-76
2021/10/04 04:41:22;;;;;;;;;;;;;;;;;;2112369;27;1244;-75
2021/10/04 04:42:23;;;;;;;;;;;;;;;;;;2112795;27;1945;-76
2021/10/04 04:43:24;;;;;;;;;;;;;;;;;;2112406;27;1185;-76
2021/10/04 04:44:25;;;;;;;;;;;;;;;;;;2112440;27;1083;-76
2021/10/04 04:45:25;;;;;;;;;;;;;;;;;;2112423;27;1084;-76
2021/10/04 04:46:26;;;;;;;;;;;;;;;;;;2112231;27;1313;-76
2021/10/04 04:47:26;;;;;;;;;;;;;;;;;;2113184;27;1216;-76
2021/10/04 04:48:28;;;;;;;;;;;;;;;;;;2112501;27;1158;-76
2021/10/04 04:49:29;;;;;;;;;;;;;;;;;;2112919;27;1459;-76
2021/10/04 04:50:30;;;;;;;;;;;;;;;;;;2111297;27;1352;-76
2021/10/04 04:51:30;;;;;;;;;;;;;;;;;;2112069;27;1098;-75
2021/10/04 04:52:31;;;;;;;;;;;;;;;;;;2112550;27;1262;-75
2021/10/04 04:53:32;;;;;;;;;;;;;;;;;;2107086;27;1148;-75
2021/10/04 04:54:32;;;;;;;;;;;;;;;;;;2106614;27;1369;-76
2021/10/04 04:55:33;;;;;;;;;;;;;;;;;;2106862;27;1166;-76
2021/10/04 04:56:34;;;;;;;;;;;;;;;;;;2106573;27;1205;-75
2021/10/04 04:57:35;;;;;;;;;;;;;;;;;;2106885;27;1209;-76
2021/10/04 04:58:37;;;;;;;;;;;;;;;;;;2107634;27;1113;-76
2021/10/04 04:59:37;;;;;;;;;;;;;;;;;;2106567;27;1389;-75
2021/10/04 05:00:39;;;;;;;;;;;;;;;;;;2106949;27;1273;-76
2021/10/04 05:01:39;;;;;;;;;;;;;;;;;;2106898;27;1905;-75
2021/10/04 05:02:40;;;;;;;;;;;;;;;;;;2106870;27;1114;-76
2021/10/04 05:03:40;;;;;;;;;;;;;;;;;;2108137;27;1125;-76
2021/10/04 05:04:41;;;;;;;;;;;;;;;;;;2107008;27;1049;-75
2021/10/04 05:05:41;;;;;;;;;;;;;;;;;;2106590;27;1296;-76
2021/10/04 05:06:42;;;;;;;;;;;;;;;;;;2108086;27;1282;-76
2021/10/04 05:07:42;;;;;;;;;;;;;;;;;;2106949;27;1140;-75
2021/10/04 05:08:43;;;;;;;;;;;;;;;;;;2107344;27;3086;-75
2021/10/04 05:09:44;;;;;;;;;;;;;;;;;;2107770;27;1366;-75
2021/10/04 05:10:45;;;;;;;;;;;;;;;;;;2107822;27;1337;-76
2021/10/04 05:11:45;;;;;;;;;;;;;;;;;;2107856;27;1096;-75
2021/10/04 05:12:46;;;;;;;;;;;;;;;;;;2107428;27;1343;-75
2021/10/04 05:13:47;;;;;;;;;;;;;;;;;;2107773;27;1172;-75
2021/10/04 05:14:48;;;;;;;;;;;;;;;;;;2107684;27;1142;-75
2021/10/04 05:15:48;;;;;;;;;;;;;;;;;;2108500;27;1197;-76
2021/10/04 05:16:49;;;;;;;;;;;;;;;;;;2108467;27;1176;-75
2021/10/04 05:17:50;;;;;;;;;;;;;;;;;;2108354;27;1161;-75
2021/10/04 05:18:51;;;;;;;;;;;;;;;;;;2108648;27;1174;-76
2021/10/04 05:19:51;;;;;;;;;;;;;;;;;;2108464;27;1299;-76
2021/10/04 05:20:52;;;;;;;;;;;;;;;;;;2108394;27;1204;-76
2021/10/04 05:21:52;;;;;;;;;;;;;;;;;;2107813;27;3389;-75
2021/10/04 05:22:53;;;;;;;;;;;;;;;;;;2108203;27;1240;-76
2021/10/04 05:23:53;;;;;;;;;;;;;;;;;;2107975;27;1232;-76
2021/10/04 05:24:55;;;;;;;;;;;;;;;;;;2109146;27;1228;-75
2021/10/04 05:25:56;;;;;;;;;;;;;;;;;;2108246;27;1229;-75
2021/10/04 05:26:57;;;;;;;;;;;;;;;;;;2108192;27;1081;-75
2021/10/04 05:27:57;;;;;;;;;;;;;;;;;;2106972;27;1256;-76
2021/10/04 05:28:58;;;;;;;;;;;;;;;;;;2108560;27;1080;-76
2021/10/04 05:29:58;;;;;;;;;;;;;;;;;;2108908;27;1401;-76
2021/10/04 05:30:59;;;;;;;;;;;;;;;;;;2107358;27;1294;-75
2021/10/04 05:31:59;;;;;;;;;;;;;;;;;;2109079;27;1169;-76
2021/10/04 05:33:00;;;;;;;;;;;;;;;;;;2108917;27;1395;-76
2021/10/04 05:34:02;;;;;;;;;;;;;;;;;;2108713;27;1184;-76
2021/10/04 05:35:03;;;;;;;;;;;;;;;;;;2109969;27;1190;-75
2021/10/04 05:36:04;;;;;;;;;;;;;;;;;;2109035;27;1206;-76
2021/10/04 05:37:06;;;;;;;;;;;;;;;;;;2109671;27;1064;-76
2021/10/04 05:38:06;;;;;;;;;;;;;;;;;;2109250;27;1187;-75
2021/10/04 05:39:07;;;;;;;;;;;;;;;;;;2109167;27;1164;-76
2021/10/04 05:40:07;;;;;;;;;;;;;;;;;;2108457;27;1277;-76
2021/10/04 05:41:09;;;;;;;;;;;;;;;;;;2108896;27;1561;-76
2021/10/04 05:42:09;;;;;;;;;;;;;;;;;;2108918;27;1939;-76
2021/10/04 05:43:11;;;;;;;;;;;;;;;;;;2109708;27;1236;-75
2021/10/04 05:44:11;;;;;;;;;;;;;;;;;;2108503;27;1037;-75
2021/10/04 05:45:12;;;;;;;;;;;;;;;;;;2109158;27;1075;-76
2021/10/04 05:46:13;;;;;;;;;;;;;;;;;;2108802;27;1077;-76
2021/10/04 05:47:13;;;;;;;;;;;;;;;;;;2108906;27;1082;-76
2021/10/04 05:48:14;;;;;;;;;;;;;;;;;;2109066;27;1126;-76
2021/10/04 05:49:14;;;;;;;;;;;;;;;;;;2108846;27;1159;-76
2021/10/04 05:50:15;;;;;;;;;;;;;;;;;;2108835;27;1204;-75
2021/10/04 05:51:15;;;;;;;;;;;;;;;;;;2108891;27;1262;-76
2021/10/04 05:52:17;;;;;;;;;;;;;;;;;;2109687;27;1291;-75
2021/10/04 05:53:17;;;;;;;;;;;;;;;;;;2109141;27;1392;-75
2021/10/04 05:54:20;;;;;;;;;;;;;;;;;;2109015;27;1052;-75
2021/10/04 05:55:20;;;;;;;;;;;;;;;;;;2108833;27;1227;-75
2021/10/04 05:56:21;;;;;;;;;;;;;;;;;;2109709;27;1183;-76
2021/10/04 05:57:21;;;;;;;;;;;;;;;;;;2108993;27;1339;-75
2021/10/04 05:58:22;;;;;;;;;;;;;;;;;;2109018;27;1113;-76
2021/10/04 05:59:22;;;;;;;;;;;;;;;;;;2109347;27;1197;-75
2021/10/04 06:00:23;;;;;;;;;;;;;;;;;;2108434;27;1380;-75
2021/10/04 06:01:24;;;;;;;;;;;;;;;;;;2109366;27;1092;-75
2021/10/04 06:02:25;;;;;;;;;;;;;;;;;;2109426;27;1992;-76
2021/10/04 06:03:27;;;;;;;;;;;;;;;;;;2109417;27;1297;-76
2021/10/04 06:04:27;;;;;;;;;;;;;;;;;;2108624;27;1148;-75
2021/10/04 06:05:28;;;;;;;;;;;;;;;;;;2107982;27;1212;-76
2021/10/04 06:06:28;;;;;;;;;;;;;;;;;;2109302;27;1332;-76
2021/10/04 06:07:29;;;;;;;;;;;;;;;;;;2109089;27;1367;-75
2021/10/04 06:08:29;;;;;;;;;;;;;;;;;;2109245;27;3766;-75
2021/10/04 06:09:30;;;;;;;;;;;;;;;;;;2109071;27;1170;-75
2021/10/04 06:10:31;;;;;;;;;;;;;;;;;;2106882;27;1509;-76
2021/10/04 06:11:32;;;;;;;;;;;;;;;;;;2108406;27;1262;-76
2021/10/04 06:12:32;;;;;;;;;;;;;;;;;;2109233;27;1313;-75
2021/10/04 06:13:33;;;;;;;;;;;;;;;;;;2108932;27;1206;-76
2021/10/04 06:14:33;;;;;;;;;;;;;;;;;;2108857;27;1109;-76
2021/10/04 06:15:34;;;;;;;;;;;;;;;;;;2109293;27;1164;-76
2021/10/04 06:16:35;;;;;;;;;;;;;;;;;;2109065;27;1198;-76
2021/10/04 06:17:36;;;;;;;;;;;;;;;;;;2109357;27;3175;-76
2021/10/04 06:18:36;;;;;;;;;;;;;;;;;;2107976;27;1094;-76
2021/10/04 06:19:37;;;;;;;;;;;;;;;;;;2104761;27;2053;-75
2021/10/04 06:20:37;;;;;;;;;;;;;;;;;;2106121;27;1120;-75
2021/10/04 06:21:38;;;;;;;;;;;;;;;;;;2106480;27;1133;-75
2021/10/04 06:22:38;;;;;;;;;;;;;;;;;;2106251;27;1992;-76
2021/10/04 06:23:39;;;;;;;;;;;;;;;;;;2106772;27;1330;-76
2021/10/04 06:24:40;;;;;;;;;;;;;;;;;;2106523;27;1317;-76
2021/10/04 06:25:41;;;;;;;;;;;;;;;;;;2106442;27;1320;-75
2021/10/04 06:26:41;;;;;;;;;;;;;;;;;;2106526;27;1416;-76
2021/10/04 06:27:42;;;;;;;;;;;;;;;;;;2106334;27;1556;-75
2021/10/04 06:28:42;;;;;;;;;;;;;;;;;;2106887;27;1122;-75
2021/10/04 06:29:43;;;;;;;;;;;;;;;;;;2106566;27;1257;-75
2021/10/04 06:30:43;;;;;;;;;;;;;;;;;;2106691;27;1474;-76
2021/10/04 06:31:44;;;;;;;;;;;;;;;;;;2107214;27;1137;-75
2021/10/04 06:32:45;;;;;;;;;;;;;;;;;;2106472;27;1181;-76
2021/10/04 06:33:46;;;;;;;;;;;;;;;;;;2106149;27;1422;-75
2021/10/04 06:34:46;;;;;;;;;;;;;;;;;;2106561;27;1933;-75
2021/10/04 06:35:47;;;;;;;;;;;;;;;;;;2106926;27;1128;-76
2021/10/04 06:36:48;;;;;;;;;;;;;;;;;;2106926;27;1494;-75
2021/10/04 06:37:48;;;;;;;;;;;;;;;;;;2106722;27;1102;-76
2021/10/04 06:38:49;;;;;;;;;;;;;;;;;;2107019;27;1307;-76
2021/10/04 06:39:49;;;;;;;;;;;;;;;;;;2106074;27;1204;-75
2021/10/04 06:40:51;;;;;;;;;;;;;;;;;;2106500;27;1141;-76
2021/10/04 06:41:51;;;;;;;;;;;;;;;;;;2106283;28;1169;-76
2021/10/04 06:42:52;;;;;;;;;;;;;;;;;;2105809;27;1990;-75
2021/10/04 06:43:52;;;;;;;;;;;;;;;;;;2106014;27;1208;-76
2021/10/04 06:44:53;;;;;;;;;;;;;;;;;;2107057;27;1112;-75
2021/10/04 06:45:53;;;;;;;;;;;;;;;;;;2107390;27;1161;-76
2021/10/04 06:46:54;;;;;;;;;;;;;;;;;;2107604;27;1152;-76
2021/10/04 06:47:55;;;;;;;;;;;;;;;;;;2106253;27;1205;-76
2021/10/04 06:48:56;;;;;;;;;;;;;;;;;;2107271;27;1157;-76
2021/10/04 06:49:57;;;;;;;;;;;;;;;;;;2107588;27;1367;-76
2021/10/04 06:50:57;;;;;;;;;;;;;;;;;;2107773;27;1332;-75
2021/10/04 06:51:58;;;;;;;;;;;;;;;;;;2107533;27;1241;-75
2021/10/04 06:52:59;;;;;;;;;;;;;;;;;;2107882;27;1085;-76
2021/10/04 06:53:59;;;;;;;;;;;;;;;;;;2107826;27;1269;-76
2021/10/04 06:55:00;;;;;;;;;;;;;;;;;;2107517;27;1631;-75
2021/10/04 06:56:01;;;;;;;;;;;;;;;;;;2107191;27;1107;-75
2021/10/04 06:57:01;;;;;;;;;;;;;;;;;;2107280;27;1129;-76
2021/10/04 06:58:02;;;;;;;;;;;;;;;;;;2104504;27;1300;-75
2021/10/04 06:59:03;;;;;;;;;;;;;;;;;;2107112;27;1434;-76
2021/10/04 07:00:04;;;;;;;;;;;;;;;;;;2107731;27;2037;-75
2021/10/04 07:01:05;;;;;;;;;;;;;;;;;;2107616;27;1554;-76
2021/10/04 07:02:05;;;;;;;;;;;;;;;;;;2107717;27;1100;-76
2021/10/04 07:03:06;;;;;;;;;;;;;;;;;;2107138;27;1942;-76